TAF KLBX
KLBX 090535Z 0906/1006 11006KT 6SM BR OVC006 TEMPO 0906/0908 3SM BR OVC004 FM090800 18005KT 3SM -DZ BR OVC003 FM091600 19009KT 5SM -DZ BR OVC006 FM091700 19017KT 5SM BR OVC015 FM100100 17010KT 4SM BR OVC007=
METAR KLBX
WC KLBX
WS KLBX
WV KLBX